createdAt,value
2022-08-22T00:01:16.476Z,45.54
2022-08-22T00:02:54.996Z,41.35
2022-08-22T00:02:55.811Z,45.50
2022-08-22T00:03:06.552Z,43.32
2022-08-22T00:03:55.915Z,45.98
2022-08-22T00:06:32.289Z,46.62
2022-08-22T00:09:16.605Z,46.64
2022-08-22T00:11:54.215Z,46.76
2022-08-22T00:14:32.866Z,46.63
2022-08-22T00:17:06.612Z,47.21
2022-08-22T00:19:47.500Z,47.51
2022-08-22T00:22:24.546Z,47.38
2022-08-22T00:24:58.876Z,47.94
2022-08-22T00:27:34.043Z,47.95
2022-08-22T00:30:09.067Z,48.30
2022-08-22T00:32:44.108Z,47.76
2022-08-22T00:35:18.966Z,47.62
2022-08-22T00:37:54.487Z,47.51
2022-08-22T00:40:37.115Z,47.01
2022-08-22T00:43:30.530Z,47.26
2022-08-22T00:46:26.025Z,47.66
2022-08-22T00:49:35.522Z,47.21
2022-08-22T00:52:25.881Z,48.08
2022-08-22T00:55:19.485Z,48.29
2022-08-22T00:58:02.574Z,48.32
2022-08-22T01:00:35.093Z,48.42
2022-08-22T01:03:29.225Z,48.41
2022-08-22T01:06:17.293Z,48.42
2022-08-22T01:09:01.498Z,49.05
2022-08-22T01:11:51.814Z,49.14
2022-08-22T01:14:40.486Z,48.89
2022-08-22T01:17:33.550Z,48.82
2022-08-22T01:20:42.503Z,49.46
2022-08-22T01:23:40.670Z,50.07
2022-08-22T01:26:40.464Z,50.16
2022-08-22T01:29:36.965Z,50.33
2022-08-22T01:32:57.840Z,50.62
2022-08-22T01:35:47.486Z,50.00
2022-08-22T01:38:51.202Z,49.88
2022-08-22T01:41:50.632Z,48.85
2022-08-22T01:44:54.129Z,48.64
2022-08-22T01:47:29.212Z,48.56
2022-08-22T01:50:14.187Z,48.33
2022-08-22T01:52:48.085Z,47.90
2022-08-22T01:55:31.264Z,47.75
2022-08-22T01:58:03.853Z,47.65
2022-08-22T02:00:51.757Z,47.59
2022-08-22T02:03:27.333Z,47.40
2022-08-22T02:06:04.137Z,46.99
2022-08-22T02:08:44.937Z,46.76
2022-08-22T02:11:33.017Z,46.70
2022-08-22T02:14:08.007Z,46.67
2022-08-22T02:16:39.704Z,46.66
2022-08-22T02:19:22.551Z,46.74
2022-08-22T02:21:56.012Z,46.35
2022-08-22T02:24:38.079Z,46.28
2022-08-22T02:27:13.084Z,46.05
2022-08-22T02:29:47.914Z,46.06
2022-08-22T02:32:23.860Z,45.92
2022-08-22T02:35:01.410Z,45.47
2022-08-22T02:37:38.069Z,45.47
2022-08-22T02:40:15.591Z,44.77
2022-08-22T02:42:48.414Z,44.93
2022-08-22T02:45:27.704Z,44.92
2022-08-22T02:48:05.501Z,45.23
2022-08-22T02:50:52.953Z,45.14
2022-08-22T02:53:28.480Z,45.26
2022-08-22T02:56:04.468Z,44.99
2022-08-22T02:58:44.118Z,45.01
2022-08-22T03:01:27.277Z,45.43
2022-08-22T03:04:19.221Z,45.68
2022-08-22T03:07:09.737Z,45.53
2022-08-22T03:09:42.794Z,45.52
2022-08-22T03:12:22.487Z,45.92
2022-08-22T03:15:03.186Z,46.25
2022-08-22T03:17:34.406Z,46.33
2022-08-22T03:20:07.688Z,46.17
2022-08-22T03:22:49.721Z,46.01
2022-08-22T03:25:27.730Z,45.97
2022-08-22T03:28:01.417Z,46.66
2022-08-22T03:30:39.382Z,46.73
2022-08-22T03:36:00.608Z,46.55
2022-08-22T03:38:45.569Z,46.88
2022-08-22T03:41:39.378Z,46.55
2022-08-22T03:44:40.057Z,47.01
2022-08-22T03:47:38.237Z,46.92
2022-08-22T03:50:54.446Z,47.42
2022-08-22T03:53:52.346Z,47.48
2022-08-22T03:56:46.006Z,46.88
2022-08-22T03:59:52.692Z,46.70
2022-08-22T04:02:56.774Z,46.94
2022-08-22T04:05:53.313Z,47.20
2022-08-22T04:08:50.560Z,47.29
2022-08-22T04:11:52.366Z,47.24
2022-08-22T04:14:52.084Z,47.66
2022-08-22T04:17:50.981Z,47.43
2022-08-22T04:20:37.874Z,47.97
2022-08-22T04:23:28.812Z,48.02
2022-08-22T04:26:08.253Z,48.25
2022-08-22T04:28:47.396Z,48.17
2022-08-22T04:31:20.221Z,48.67
2022-08-22T04:33:53.513Z,48.79
2022-08-22T04:36:27.030Z,48.77
2022-08-22T04:39:01.967Z,49.48
2022-08-22T04:41:46.924Z,49.17
2022-08-22T04:44:21.794Z,50.15
2022-08-22T04:46:57.316Z,50.16
2022-08-22T04:49:33.192Z,50.63
2022-08-22T04:52:11.426Z,51.27
2022-08-22T04:54:53.438Z,51.74
2022-08-22T04:57:29.348Z,51.62
2022-08-22T05:00:01.292Z,51.86
2022-08-22T05:02:31.339Z,52.14
2022-08-22T05:05:05.029Z,52.29
2022-08-22T05:07:46.885Z,52.78
2022-08-22T05:10:20.814Z,52.79
2022-08-22T05:12:55.996Z,52.99
2022-08-22T05:15:27.572Z,53.02
2022-08-22T05:18:01.098Z,52.96
2022-08-22T05:20:30.936Z,52.95
2022-08-22T05:23:06.442Z,52.67
2022-08-22T05:25:51.101Z,52.40
2022-08-22T05:28:30.132Z,52.25
2022-08-22T05:30:59.266Z,51.89
2022-08-22T05:33:31.847Z,52.13
2022-08-22T05:36:04.508Z,51.87
2022-08-22T05:38:36.176Z,51.94
2022-08-22T05:41:10.182Z,52.04
2022-08-22T05:43:40.798Z,51.68
2022-08-22T05:46:17.928Z,51.87
2022-08-22T05:48:55.259Z,51.37
2022-08-22T05:51:28.249Z,50.81
2022-08-22T05:54:07.862Z,50.44
2022-08-22T05:56:43.239Z,50.01
2022-08-22T05:59:23.866Z,49.67
2022-08-22T06:02:03.262Z,49.26
2022-08-22T06:04:38.486Z,48.63
2022-08-22T06:07:12.972Z,48.04
2022-08-22T06:10:03.241Z,48.39
2022-08-22T06:12:37.780Z,48.42
2022-08-22T06:15:14.256Z,47.83
2022-08-22T06:17:45.587Z,47.97
2022-08-22T06:20:20.756Z,48.18
2022-08-22T06:22:53.921Z,47.86
2022-08-22T06:25:26.353Z,47.79
2022-08-22T06:28:00.073Z,47.13
2022-08-22T06:30:30.018Z,46.59
2022-08-22T06:33:02.745Z,45.80
2022-08-22T06:35:55.948Z,43.77
2022-08-22T06:38:33.448Z,42.58
2022-08-22T06:41:04.453Z,41.64
2022-08-22T06:43:40.537Z,39.43
2022-08-22T06:46:09.826Z,38.77
2022-08-22T06:48:38.445Z,38.28
2022-08-22T06:51:08.751Z,36.88
2022-08-22T06:53:47.809Z,36.17
2022-08-22T06:56:22.991Z,35.28
2022-08-22T06:58:55.818Z,34.75
2022-08-22T07:01:29.337Z,34.08
2022-08-22T07:04:05.268Z,33.50
2022-08-22T07:06:37.854Z,32.80
2022-08-22T07:09:07.724Z,31.40
2022-08-22T07:11:39.560Z,30.95
2022-08-22T07:14:11.678Z,30.77
2022-08-22T07:16:44.012Z,30.27
2022-08-22T07:19:25.572Z,30.66
2022-08-22T07:21:54.746Z,29.60
2022-08-22T07:24:27.289Z,29.45
2022-08-22T07:27:12.677Z,29.26
2022-08-22T07:29:55.837Z,28.34
2022-08-22T07:32:32.973Z,28.10
2022-08-22T07:35:10.340Z,28.52
2022-08-22T07:38:01.340Z,27.61
2022-08-22T07:40:35.780Z,28.25
2022-08-22T07:43:17.953Z,28.18
2022-08-22T07:45:53.469Z,28.52
2022-08-22T07:48:27.160Z,29.43
2022-08-22T07:51:04.390Z,29.32
2022-08-22T07:53:41.178Z,29.38
2022-08-22T07:56:14.562Z,30.43
2022-08-22T07:58:45.888Z,29.75
2022-08-22T08:01:20.775Z,30.21
2022-08-22T08:03:57.237Z,30.59
2022-08-22T08:06:28.264Z,30.93
2022-08-22T08:08:58.157Z,31.55
2022-08-22T08:11:30.706Z,30.89
2022-08-22T08:14:02.807Z,31.32
2022-08-22T08:16:41.693Z,31.40
2022-08-22T08:19:12.945Z,32.13
2022-08-22T08:21:44.521Z,31.86
2022-08-22T08:24:17.189Z,32.62
2022-08-22T08:27:06.640Z,32.26
2022-08-22T08:29:37.121Z,33.01
2022-08-22T08:32:11.425Z,32.24
2022-08-22T08:34:40.844Z,32.60
2022-08-22T08:37:16.364Z,32.59
2022-08-22T08:39:50.903Z,32.29
2022-08-22T08:43:05.108Z,32.54
2022-08-22T08:45:59.298Z,32.88
2022-08-22T08:48:54.039Z,33.10
2022-08-22T08:51:44.510Z,32.41
2022-08-22T08:54:35.894Z,31.19
2022-08-22T08:57:14.293Z,31.64
2022-08-22T08:59:54.050Z,31.89
2022-08-22T09:06:07.260Z,32.24
2022-08-22T09:08:55.519Z,31.14
2022-08-22T09:11:48.147Z,31.73
2022-08-22T09:14:30.386Z,31.20
2022-08-22T09:17:24.993Z,30.61
2022-08-22T09:20:18.080Z,30.75
2022-08-22T09:23:23.682Z,31.48
2022-08-22T09:26:01.144Z,30.94
2022-08-22T09:28:38.825Z,31.70
2022-08-22T09:31:51.852Z,30.95
2022-08-22T09:34:29.079Z,31.52
2022-08-22T09:37:16.339Z,31.58
2022-08-22T09:39:53.840Z,31.99
2022-08-22T09:42:35.017Z,31.33
2022-08-22T09:45:35.673Z,30.46
2022-08-22T09:48:11.309Z,31.01
2022-08-22T09:50:52.683Z,30.54
2022-08-22T09:53:43.592Z,30.52
2022-08-22T09:56:26.049Z,30.89
2022-08-22T09:59:03.100Z,30.87
2022-08-22T10:01:40.151Z,31.17
2022-08-22T10:04:43.989Z,31.15
2022-08-22T10:07:31.784Z,30.41
2022-08-22T10:10:07.348Z,30.23
2022-08-22T10:12:52.019Z,30.30
2022-08-22T10:15:30.624Z,30.02
2022-08-22T10:18:20.380Z,30.30
2022-08-22T10:21:00.545Z,29.93
2022-08-22T10:23:36.887Z,29.81
2022-08-22T10:26:22.936Z,29.31
2022-08-22T10:28:57.803Z,28.73
2022-08-22T10:31:55.546Z,29.15
2022-08-22T10:34:32.254Z,29.42
2022-08-22T10:37:13.943Z,29.61
2022-08-22T10:39:48.064Z,29.31
2022-08-22T10:42:28.438Z,29.57
2022-08-22T10:45:23.550Z,29.22
2022-08-22T10:48:29.432Z,29.46
2022-08-22T10:51:08.613Z,29.72
2022-08-22T10:53:53.249Z,30.36
2022-08-22T10:56:29.920Z,30.10
2022-08-22T10:59:07.574Z,31.24
2022-08-22T11:01:54.827Z,30.69
2022-08-22T11:04:45.061Z,30.47
2022-08-22T11:07:21.520Z,30.07
2022-08-22T11:10:01.513Z,30.12
2022-08-22T11:12:41.650Z,29.69
2022-08-22T11:15:34.390Z,29.35
2022-08-22T11:18:17.881Z,29.37
2022-08-22T11:20:59.142Z,29.23
2022-08-22T11:23:40.922Z,29.50
2022-08-22T11:26:33.660Z,29.54
2022-08-22T11:29:27.755Z,29.94
2022-08-22T11:32:07.812Z,30.05
2022-08-22T11:34:49.583Z,29.32
2022-08-22T11:37:42.659Z,29.84
2022-08-22T11:40:34.448Z,30.12
2022-08-22T11:43:18.251Z,30.08
2022-08-22T11:45:50.736Z,30.00
2022-08-22T11:48:26.582Z,30.35
2022-08-22T11:51:13.370Z,30.72
2022-08-22T11:53:49.529Z,31.25
2022-08-22T11:56:26.699Z,30.98
2022-08-22T11:59:02.730Z,31.43
2022-08-22T12:01:40.967Z,32.01
2022-08-22T12:04:14.862Z,31.87
2022-08-22T12:06:56.090Z,31.33
2022-08-22T12:09:40.629Z,31.31
2022-08-22T12:12:23.290Z,31.12
2022-08-22T12:15:01.524Z,30.91
2022-08-22T12:18:01.949Z,31.06
2022-08-22T12:20:54.636Z,30.72
2022-08-22T12:23:52.917Z,30.84
2022-08-22T12:26:33.074Z,30.93
2022-08-22T12:29:34.082Z,30.84
2022-08-22T12:32:43.906Z,30.46
2022-08-22T12:35:29.683Z,30.59
2022-08-22T12:38:28.277Z,30.82
2022-08-22T12:41:28.132Z,30.40
2022-08-22T12:44:20.182Z,29.49
2022-08-22T12:47:04.276Z,29.98
2022-08-22T12:49:52.332Z,30.75
2022-08-22T12:52:33.093Z,31.37
2022-08-22T12:55:25.495Z,30.26
2022-08-22T12:58:08.052Z,30.18
2022-08-22T13:00:41.664Z,30.21
2022-08-22T13:03:14.040Z,30.30
2022-08-22T13:05:52.415Z,30.88
2022-08-22T13:08:32.352Z,31.29
2022-08-22T13:11:03.247Z,31.66
2022-08-22T13:13:41.000Z,31.56
2022-08-22T13:16:15.622Z,30.85
2022-08-22T13:18:53.770Z,30.90
2022-08-22T13:21:28.763Z,31.43
2022-08-22T13:24:10.349Z,31.35
2022-08-22T13:26:49.094Z,31.16
2022-08-22T13:29:26.131Z,31.92
2022-08-22T13:32:02.070Z,30.86
2022-08-22T13:34:39.843Z,31.07
2022-08-22T13:37:15.373Z,30.92
2022-08-22T13:39:47.126Z,30.80
2022-08-22T13:42:30.580Z,31.97
2022-08-22T13:45:04.785Z,31.52
2022-08-22T13:47:39.407Z,30.54
2022-08-22T13:50:15.231Z,30.99
2022-08-22T13:52:49.377Z,30.89
2022-08-22T13:55:30.350Z,30.66
2022-08-22T13:58:07.748Z,30.67
2022-08-22T14:01:10.763Z,30.51
2022-08-22T14:03:48.629Z,30.22
2022-08-22T14:06:41.461Z,29.54
2022-08-22T14:09:30.740Z,30.59
2022-08-22T14:12:12.284Z,30.17
2022-08-22T14:14:45.841Z,30.16
2022-08-22T14:17:19.937Z,30.09
2022-08-22T14:19:59.683Z,30.23
2022-08-22T14:22:35.035Z,29.94
2022-08-22T14:25:08.907Z,30.25
2022-08-22T14:27:40.077Z,30.14
2022-08-22T14:30:16.129Z,30.23
2022-08-22T14:32:50.750Z,30.79
2022-08-22T14:35:29.316Z,30.81
2022-08-22T14:38:19.028Z,30.31
2022-08-22T14:40:53.380Z,30.53
2022-08-22T14:43:40.440Z,31.40
2022-08-22T14:46:12.291Z,30.88
2022-08-22T14:48:47.183Z,31.29
2022-08-22T14:51:24.405Z,30.70
2022-08-22T14:53:53.430Z,30.64
2022-08-22T14:56:27.516Z,31.00
2022-08-22T14:59:00.070Z,31.11
2022-08-22T15:01:33.235Z,31.56
2022-08-22T15:04:06.917Z,32.33
2022-08-22T15:06:47.584Z,31.93
2022-08-22T15:09:29.524Z,31.74
2022-08-22T15:12:01.771Z,32.17
2022-08-22T15:14:51.928Z,31.77
2022-08-22T15:17:38.521Z,31.94
2022-08-22T15:20:14.050Z,31.47
2022-08-22T15:22:46.844Z,32.40
2022-08-22T15:25:18.988Z,32.30
2022-08-22T15:27:50.873Z,31.98
2022-08-22T15:30:31.483Z,31.56
2022-08-22T15:33:09.898Z,32.19
2022-08-22T15:35:38.957Z,31.39
2022-08-22T15:38:27.810Z,30.93
2022-08-22T15:40:57.848Z,31.52
2022-08-22T15:43:34.832Z,31.94
2022-08-22T15:46:19.342Z,32.23
2022-08-22T15:48:57.062Z,31.98
2022-08-22T15:51:40.390Z,31.79
2022-08-22T15:54:24.348Z,31.43
2022-08-22T15:57:25.764Z,32.02
2022-08-22T15:59:57.296Z,31.63
2022-08-22T16:02:35.321Z,30.87
2022-08-22T16:05:21.968Z,30.35
2022-08-22T16:07:59.783Z,30.86
2022-08-22T16:10:39.005Z,30.91
2022-08-22T16:13:16.956Z,31.62
2022-08-22T16:16:02.189Z,31.18
2022-08-22T16:19:07.868Z,30.27
2022-08-22T16:22:11.117Z,29.75
2022-08-22T16:25:06.296Z,29.72
2022-08-22T16:27:53.969Z,29.88
2022-08-22T16:30:35.160Z,30.16
2022-08-22T16:33:04.599Z,30.33
2022-08-22T16:36:25.337Z,30.36
2022-08-22T16:38:57.868Z,30.41
2022-08-22T16:41:37.448Z,30.75
2022-08-22T16:44:33.966Z,30.25
2022-08-22T16:47:13.968Z,30.44
2022-08-22T16:50:00.347Z,30.50
2022-08-22T16:52:52.911Z,30.64
2022-08-22T16:55:40.241Z,30.67
2022-08-22T16:58:22.975Z,30.94
2022-08-22T17:00:58.261Z,30.73
2022-08-22T17:03:36.203Z,30.90
2022-08-22T17:06:23.214Z,30.49
2022-08-22T17:09:02.729Z,30.81
2022-08-22T17:11:43.829Z,30.51
2022-08-22T17:14:32.279Z,30.43
2022-08-22T17:17:19.766Z,30.82
2022-08-22T17:20:08.421Z,30.42
2022-08-22T17:22:45.927Z,30.99
2022-08-22T17:25:23.210Z,30.89
2022-08-22T17:28:03.885Z,30.72
2022-08-22T17:30:42.492Z,30.65
2022-08-22T17:33:23.467Z,30.94
2022-08-22T17:36:26.284Z,31.20
2022-08-22T17:39:05.627Z,31.25
2022-08-22T17:41:40.530Z,31.46
2022-08-22T17:44:18.296Z,31.78
2022-08-22T17:46:52.628Z,31.90
2022-08-22T17:49:29.776Z,32.06
2022-08-22T17:52:07.209Z,32.07
2022-08-22T17:54:43.706Z,32.43
2022-08-22T17:57:15.642Z,32.64
2022-08-22T17:59:50.136Z,32.83
2022-08-22T18:02:23.381Z,32.92
2022-08-22T18:05:01.581Z,33.00
2022-08-22T18:07:38.845Z,33.16
2022-08-22T18:10:14.925Z,33.53
2022-08-22T18:12:49.140Z,33.71
2022-08-22T18:15:26.725Z,34.06
2022-08-22T18:18:00.288Z,34.31
2022-08-22T18:20:35.086Z,34.34
2022-08-22T18:23:21.729Z,34.57
2022-08-22T18:26:15.821Z,34.89
2022-08-22T18:28:52.309Z,35.47
2022-08-22T18:31:37.762Z,35.56
2022-08-22T18:34:16.957Z,35.59
2022-08-22T18:36:55.919Z,35.89
2022-08-22T18:39:30.780Z,35.63
2022-08-22T18:42:07.126Z,36.02
2022-08-22T18:44:38.675Z,35.63
2022-08-22T18:47:16.294Z,35.66
2022-08-22T18:49:49.165Z,35.82
2022-08-22T18:52:38.594Z,36.73
2022-08-22T18:55:33.097Z,36.72
2022-08-22T18:58:40.394Z,36.85
2022-08-22T19:01:42.106Z,37.93
2022-08-22T19:04:36.537Z,38.07
2022-08-22T19:07:23.224Z,38.18
2022-08-22T19:10:27.821Z,38.57
2022-08-22T19:13:17.373Z,39.41
2022-08-22T19:15:58.726Z,39.03
2022-08-22T19:18:41.506Z,39.73
2022-08-22T19:21:48.901Z,39.16
2022-08-22T19:24:37.024Z,39.23
2022-08-22T19:27:30.951Z,39.64
2022-08-22T19:30:04.760Z,40.17
2022-08-22T19:33:02.157Z,39.68
2022-08-22T19:35:47.320Z,39.55
2022-08-22T19:38:53.845Z,40.30
2022-08-22T19:41:47.495Z,41.35
2022-08-22T19:44:34.834Z,41.40
2022-08-22T19:47:13.788Z,41.30
2022-08-22T19:49:46.719Z,40.86
2022-08-22T19:52:33.841Z,40.60
2022-08-22T19:55:12.581Z,40.06
2022-08-22T19:57:46.463Z,39.81
2022-08-22T20:00:18.661Z,39.47
2022-08-22T20:03:01.973Z,39.86
2022-08-22T20:05:57.550Z,40.29
2022-08-22T20:08:43.714Z,40.16
2022-08-22T20:11:24.041Z,40.32
2022-08-22T20:13:52.460Z,40.09
2022-08-22T20:16:23.319Z,40.36
2022-08-22T20:19:21.447Z,40.38
2022-08-22T20:21:58.049Z,39.88
2022-08-22T20:24:39.760Z,39.99
2022-08-22T20:27:15.454Z,40.18
2022-08-22T20:29:50.127Z,40.60
2022-08-22T20:32:23.134Z,40.10
2022-08-22T20:34:59.689Z,39.99
2022-08-22T20:37:50.719Z,40.47
2022-08-22T20:40:54.801Z,40.64
2022-08-22T20:43:28.365Z,41.17
2022-08-22T20:46:07.402Z,41.14
2022-08-22T20:48:44.667Z,41.33
2022-08-22T20:51:25.125Z,41.65
2022-08-22T20:53:55.482Z,42.19
2022-08-22T20:56:34.204Z,42.07
2022-08-22T20:59:17.007Z,42.73
2022-08-22T21:01:46.460Z,42.86
2022-08-22T21:04:17.790Z,43.01
2022-08-22T21:06:47.566Z,43.06
2022-08-22T21:09:38.688Z,43.39
2022-08-22T21:12:09.518Z,43.67
2022-08-22T21:14:46.053Z,43.68
2022-08-22T21:17:20.272Z,43.78
2022-08-22T21:19:48.564Z,43.59
2022-08-22T21:22:20.909Z,43.98
2022-08-22T21:24:49.208Z,43.70
2022-08-22T21:27:24.398Z,44.13
2022-08-22T21:29:52.858Z,44.18
2022-08-22T21:32:31.312Z,43.74
2022-08-22T21:35:01.401Z,43.89
2022-08-22T21:37:37.748Z,43.99
2022-08-22T21:40:15.238Z,43.81
2022-08-22T21:42:46.482Z,44.08
2022-08-22T21:45:28.601Z,44.36
2022-08-22T21:47:57.949Z,43.93
2022-08-22T21:50:34.703Z,44.10
2022-08-22T21:53:09.094Z,44.33
2022-08-22T21:55:42.929Z,44.25
2022-08-22T21:58:36.001Z,44.55
2022-08-22T22:01:30.203Z,44.28
2022-08-22T22:03:59.841Z,44.54
2022-08-22T22:06:28.607Z,44.39
2022-08-22T22:08:58.576Z,44.25
2022-08-22T22:11:27.053Z,44.51
2022-08-22T22:13:55.693Z,44.47
2022-08-22T22:16:31.172Z,44.68
2022-08-22T22:19:00.797Z,45.14
2022-08-22T22:21:29.449Z,45.42
2022-08-22T22:23:59.193Z,45.52
2022-08-22T22:26:28.770Z,45.76
2022-08-22T22:28:58.743Z,45.83
2022-08-22T22:31:27.243Z,46.23
2022-08-22T22:33:55.658Z,46.52
2022-08-22T22:36:27.776Z,46.56
2022-08-22T22:39:05.692Z,46.78
2022-08-22T22:41:34.139Z,47.31
2022-08-22T22:44:02.493Z,47.49
2022-08-22T22:46:31.504Z,47.54
2022-08-22T22:49:00.099Z,47.81
2022-08-22T22:51:28.425Z,47.91
2022-08-22T22:53:57.308Z,47.95
2022-08-22T22:56:28.182Z,48.05
2022-08-22T22:58:57.569Z,48.26
2022-08-22T23:01:28.432Z,48.28
2022-08-22T23:03:59.277Z,48.49
2022-08-22T23:06:34.140Z,48.72
2022-08-22T23:09:02.474Z,49.00
2022-08-22T23:11:32.442Z,48.96
2022-08-22T23:14:02.589Z,48.94
2022-08-22T23:16:36.654Z,48.98
2022-08-22T23:19:10.362Z,48.77
2022-08-22T23:21:39.750Z,48.96
2022-08-22T23:24:08.066Z,48.86
2022-08-22T23:26:38.456Z,48.81
2022-08-22T23:29:07.774Z,49.41
2022-08-22T23:31:39.049Z,49.38
2022-08-22T23:34:10.314Z,49.66
2022-08-22T23:36:40.277Z,49.77
2022-08-22T23:39:09.782Z,49.64
2022-08-22T23:41:41.094Z,49.89
2022-08-22T23:44:13.434Z,50.24
2022-08-22T23:46:43.104Z,50.54
2022-08-22T23:49:12.181Z,50.55
2022-08-22T23:51:42.068Z,50.31
2022-08-22T23:54:10.441Z,50.28
2022-08-22T23:56:42.029Z,49.95
2022-08-22T23:59:13.255Z,50.12
